createdAt,value
2018-05-01T00:00:35.931Z,68.59
2018-05-01T00:01:17.134Z,68.5
2018-05-01T00:01:57.850Z,68.98
2018-05-01T00:02:38.248Z,68.4
2018-05-01T00:03:19.098Z,67.64
2018-05-01T00:03:59.592Z,67.83
2018-05-01T00:04:41.130Z,68.02
2018-05-01T00:05:21.423Z,68.59
2018-05-01T00:06:02.356Z,68.02
2018-05-01T00:06:44.191Z,68.3
2018-05-01T00:07:24.760Z,67.83
2018-05-01T00:08:05.515Z,68.27
2018-05-01T00:08:45.937Z,68.78
2018-05-01T00:09:26.853Z,68.88
2018-05-01T00:10:07.929Z,69.07
2018-05-01T00:10:48.927Z,68.12
2018-05-01T00:11:29.703Z,68.88
2018-05-01T00:12:10.018Z,68.59
2018-05-01T00:12:50.968Z,68.4
2018-05-01T00:13:31.929Z,68.69
2018-05-01T00:14:12.783Z,68.3
2018-05-01T00:14:53.717Z,68.59
2018-05-01T00:15:34.078Z,68.3
2018-05-01T00:16:15.583Z,68.4
2018-05-01T00:16:58.112Z,68.88
2018-05-01T00:17:38.647Z,69.45
2018-05-01T00:18:19.686Z,68.69
2018-05-01T00:19:00.364Z,68.69
2018-05-01T00:19:40.944Z,68.3
2018-05-01T00:20:22.694Z,68.12
2018-05-01T00:21:03.571Z,68.02
2018-05-01T00:21:44.716Z,68.4
2018-05-01T00:22:25.278Z,68.4
2018-05-01T00:23:06.343Z,68.02
2018-05-01T00:23:49.434Z,67.83
2018-05-01T00:24:30.086Z,67.83
2018-05-01T00:25:10.470Z,68.12
2018-05-01T00:25:51.448Z,67.64
2018-05-01T00:26:31.893Z,68.02
2018-05-01T00:27:12.525Z,67.74
2018-05-01T00:27:52.977Z,67.83
2018-05-01T00:28:33.479Z,68.02
2018-05-01T00:29:13.955Z,67.93
2018-05-01T00:29:54.437Z,68.12
2018-05-01T00:30:35.296Z,67.35
2018-05-01T00:31:17.334Z,67.93
2018-05-01T00:31:58.767Z,68.02
2018-05-01T00:32:38.890Z,67.83
2018-05-01T00:33:19.575Z,68.02
2018-05-01T00:34:00.454Z,67.83
2018-05-01T00:34:41.527Z,67.64
2018-05-01T00:35:22.706Z,67.74
2018-05-01T00:36:02.943Z,67.35
2018-05-01T00:36:43.750Z,68.02
2018-05-01T00:37:24.532Z,68.4
2018-05-01T00:38:05.187Z,67.74
2018-05-01T00:38:45.968Z,68.59
2018-05-01T00:39:26.444Z,69.35
2018-05-01T00:40:07.086Z,68.5
2018-05-01T00:40:48.444Z,68.12
2018-05-01T00:41:28.967Z,68.02
2018-05-01T00:42:09.769Z,67.83
2018-05-01T00:42:51.269Z,67.83
2018-05-01T00:43:32.893Z,67.74
2018-05-01T00:44:15.140Z,68.21
2018-05-01T00:44:55.551Z,68.21
2018-05-01T00:45:36.181Z,68.3
2018-05-01T00:46:17.463Z,68.3
2018-05-01T00:46:58.539Z,68.3
2018-05-01T00:47:39.657Z,68.12
2018-05-01T00:50:01.654Z,66.59
2018-05-01T00:50:42.029Z,66.78
2018-05-01T00:51:22.648Z,67.35
2018-05-01T00:52:02.940Z,67.35
2018-05-01T00:52:43.299Z,67.55
2018-05-01T00:53:24.191Z,67.26
2018-05-01T00:54:04.654Z,67.83
2018-05-01T00:54:45.133Z,68.69
2018-05-01T00:55:25.662Z,68.78
2018-05-01T00:56:06.770Z,68.98
2018-05-01T00:56:47.369Z,68.02
2018-05-01T00:57:27.833Z,67.83
2018-05-01T00:58:08.502Z,68.78
2018-05-01T00:58:48.951Z,68.3
2018-05-01T00:59:29.554Z,68.21
2018-05-01T01:00:09.996Z,68.98
2018-05-01T01:00:50.468Z,68.12
2018-05-01T01:01:31.391Z,68.5
2018-05-01T01:02:11.823Z,68.3
2018-05-01T01:02:52.170Z,68.21
2018-05-01T01:03:32.575Z,67.93
2018-05-01T01:04:13.097Z,67.64
2018-05-01T01:04:53.672Z,67.93
2018-05-01T01:05:34.068Z,67.93
2018-05-01T01:06:14.577Z,67.93
2018-05-01T01:06:55.124Z,68.02
2018-05-01T01:07:35.629Z,68.5
2018-05-01T01:08:16.817Z,68.88
2018-05-01T01:08:57.493Z,68.3
2018-05-01T01:09:38.101Z,68.02
2018-05-01T01:10:18.603Z,68.59
2018-05-01T01:10:59.170Z,67.74
2018-05-01T01:11:39.603Z,67.8
2018-05-01T01:12:20.702Z,67.99
2018-05-01T01:13:01.013Z,68.98
2018-05-01T01:13:44.301Z,68.98
2018-05-01T01:14:24.646Z,68.69
2018-05-01T01:15:05.044Z,68.27
2018-05-01T01:15:46.109Z,68.88
2018-05-01T01:16:26.851Z,68.78
2018-05-01T01:17:07.675Z,68.78
2018-05-01T01:17:48.278Z,68.98
2018-05-01T01:18:28.821Z,68.59
2018-05-01T01:19:10.102Z,68.5
2018-05-01T01:19:50.477Z,68.5
2018-05-01T01:20:30.790Z,68.12
2018-05-01T01:21:12.181Z,68.12
2018-05-01T01:21:52.803Z,68.02
2018-05-01T01:22:33.621Z,68.78
2018-05-01T01:23:14.235Z,68.59
2018-05-01T01:23:54.880Z,68.46
2018-05-01T01:24:35.603Z,68.65
2018-05-01T01:25:16.416Z,68.84
2018-05-01T01:25:56.989Z,68.65
2018-05-01T01:26:37.816Z,68.75
2018-05-01T01:27:18.424Z,68.46
2018-05-01T01:27:58.897Z,69.04
2018-05-01T01:28:39.252Z,68.94
2018-05-01T01:29:19.859Z,68.84
2018-05-01T01:30:00.333Z,68.75
2018-05-01T01:30:40.881Z,68.75
2018-05-01T01:31:21.971Z,69.04
2018-05-01T01:32:05.308Z,69.54
2018-05-01T01:32:45.360Z,69.17
2018-05-01T01:33:25.987Z,68.98
2018-05-01T01:34:06.485Z,68.08
2018-05-01T01:34:46.837Z,68.27
2018-05-01T01:35:27.359Z,69.42
2018-05-01T01:36:07.939Z,68.84
2018-05-01T01:36:48.676Z,68.94
2018-05-01T01:37:29.061Z,69.32
2018-05-01T01:38:09.752Z,69.32
2018-05-01T01:38:50.599Z,69.6
2018-05-01T01:39:31.091Z,69.99
2018-05-01T01:40:11.648Z,69.99
2018-05-01T01:40:52.096Z,69.89
2018-05-01T01:41:32.684Z,70.37
2018-05-01T01:42:13.391Z,69.51
2018-05-01T01:42:54.500Z,69.32
2018-05-01T01:43:35.108Z,69.79
2018-05-01T01:44:15.569Z,69.89
2018-05-01T01:44:56.511Z,69.6
2018-05-01T01:45:37.150Z,69.7
2018-05-01T01:46:17.695Z,70.27
2018-05-01T01:46:58.261Z,70.18
2018-05-01T01:47:38.766Z,70.18
2018-05-01T01:48:19.865Z,70.75
2018-05-01T01:49:00.308Z,71.13
2018-05-01T01:49:40.632Z,70.47
2018-05-01T01:50:21.314Z,70.47
2018-05-01T01:51:01.837Z,71.22
2018-05-01T01:51:42.469Z,71.13
2018-05-01T01:52:22.866Z,70.56
2018-05-01T01:53:03.804Z,70.65
2018-05-01T01:53:44.483Z,69.99
2018-05-01T01:54:25.176Z,69.89
2018-05-01T01:55:05.893Z,70.56
2018-05-01T01:55:46.395Z,70.18
2018-05-01T01:56:26.999Z,69.13
2018-05-01T01:57:07.312Z,70.18
2018-05-01T01:57:48.554Z,69.13
2018-05-01T01:58:28.582Z,69.79
2018-05-01T01:59:08.954Z,69.51
2018-05-01T01:59:49.721Z,70.27
2018-05-01T02:00:30.351Z,70.47
2018-05-01T02:01:10.854Z,70.65
2018-05-01T02:03:07.867Z,70.47
2018-05-01T02:03:49.458Z,70.37
2018-05-01T02:04:30.025Z,70.75
2018-05-01T02:05:10.538Z,71.03
2018-05-01T02:05:51.101Z,71.13
2018-05-01T02:06:31.827Z,70.56
2018-05-01T02:07:13.464Z,70.18
2018-05-01T02:07:53.621Z,70.56
2018-05-01T02:08:34.810Z,70.69
2018-05-01T02:10:37.164Z,69.99
2018-05-01T02:11:23.851Z,69.99
2018-05-01T02:12:12.715Z,70.75
2018-05-01T02:12:53.694Z,71.7
2018-05-01T02:13:34.218Z,71.51
2018-05-01T02:14:14.875Z,70.84
2018-05-01T02:14:55.894Z,71.13
2018-05-01T02:15:36.305Z,70.27
2018-05-01T02:16:17.194Z,70.47
2018-05-01T02:16:57.809Z,70.18
2018-05-01T02:17:38.207Z,70.47
2018-05-01T02:18:18.710Z,70.47
2018-05-01T02:18:59.560Z,70.27
2018-05-01T02:19:40.894Z,70.47
2018-05-01T02:20:21.844Z,70.94
2018-05-01T02:21:02.043Z,71.03
2018-05-01T02:21:42.523Z,70.75
2018-05-01T02:22:23.221Z,70.56
2018-05-01T02:23:03.857Z,70.18
2018-05-01T02:23:44.896Z,70.27
2018-05-01T02:24:25.941Z,69.89
2018-05-01T02:25:06.436Z,70.37
2018-05-01T02:25:46.923Z,70.08
2018-05-01T02:26:27.620Z,69.89
2018-05-01T02:27:08.770Z,71.13
2018-05-01T02:27:51.879Z,71.13
2018-05-01T02:28:33.039Z,71.51
2018-05-01T02:29:13.648Z,70.75
2018-05-01T02:29:55.708Z,71.51
2018-05-01T02:30:35.729Z,71.13
2018-05-01T02:31:16.582Z,70.56
2018-05-01T02:31:57.593Z,70.56
2018-05-01T02:32:38.224Z,71.42
2018-05-01T02:33:18.624Z,70.65
2018-05-01T02:33:59.571Z,70.27
2018-05-01T02:34:39.745Z,69.51
2018-05-01T02:35:20.626Z,70.47
2018-05-01T02:36:02.495Z,70.56
2018-05-01T02:36:43.033Z,69.79
2018-05-01T02:37:23.525Z,69.6
2018-05-01T02:38:04.193Z,70.56
2018-05-01T02:38:45.856Z,70.65
2018-05-01T02:44:07.616Z,70.27
2018-05-01T02:44:50.447Z,70.27
2018-05-01T02:45:30.985Z,70.65
2018-05-01T02:46:11.616Z,70.75
2018-05-01T02:46:52.081Z,70.56
2018-05-01T02:47:32.748Z,70.37
2018-05-01T02:48:13.379Z,69.51
2018-05-01T02:48:53.732Z,69.54
2018-05-01T02:49:35.503Z,70.31
2018-05-01T02:50:15.966Z,70.31
2018-05-01T02:50:56.744Z,70.21
2018-05-01T02:51:37.845Z,70.5
2018-05-01T02:52:18.624Z,69.64
2018-05-01T02:52:59.231Z,69.64
2018-05-01T02:53:39.895Z,69.74
2018-05-01T02:54:20.728Z,69.7
2018-05-01T02:55:01.419Z,70.02
2018-05-01T02:55:44.489Z,69.74
2018-05-01T02:56:23.705Z,69.6
2018-05-01T02:57:04.446Z,70.27
2018-05-01T02:57:44.916Z,70.08
2018-05-01T02:58:25.463Z,69.83
2018-05-01T03:01:34.633Z,70.65
2018-05-01T03:03:17.614Z,70.65
2018-05-01T03:03:58.510Z,70.84
2018-05-01T03:04:39.513Z,70.12
2018-05-01T03:05:20.321Z,69.83
2018-05-01T03:06:00.831Z,69.51
2018-05-01T03:06:41.255Z,69.6
2018-05-01T03:07:21.932Z,70.18
2018-05-01T03:08:02.693Z,70.65
2018-05-01T03:08:42.793Z,70.37
2018-05-01T03:10:34.768Z,71.61
2018-05-01T03:11:16.483Z,71.32
2018-05-01T03:11:56.840Z,71.8
2018-05-01T03:12:38.085Z,71.42
2018-05-01T03:13:18.475Z,70.94
2018-05-01T03:13:58.898Z,71.61
2018-05-01T03:14:39.517Z,71.42
2018-05-01T03:15:20.842Z,71.61
2018-05-01T03:16:01.669Z,71.51
2018-05-01T03:16:42.705Z,71.8
2018-05-01T03:17:23.879Z,71.51
2018-05-01T03:18:04.891Z,71.7
2018-05-01T03:18:45.162Z,71.8
2018-05-01T03:19:28.151Z,71.03
2018-05-01T03:20:08.617Z,70.84
2018-05-01T03:20:49.381Z,71.51
2018-05-01T03:21:30.114Z,70.75
2018-05-01T03:22:10.640Z,71.03
2018-05-01T03:22:51.253Z,70.75
2018-05-01T03:23:33.031Z,70.27
2018-05-01T03:24:13.385Z,71.13
2018-05-01T03:24:53.790Z,70.75
2018-05-01T03:25:34.941Z,70.75
2018-05-01T03:26:15.499Z,70.47
2018-05-01T03:26:56.686Z,69.99
2018-05-01T03:27:37.048Z,70.27
2018-05-01T03:28:17.680Z,70.37
2018-05-01T03:28:58.264Z,70.18
2018-05-01T03:29:39.330Z,70.65
2018-05-01T03:30:19.901Z,70.37
2018-05-01T03:31:00.449Z,71.03
2018-05-01T03:31:40.888Z,71.03
2018-05-01T03:32:21.472Z,70.94
2018-05-01T03:33:02.773Z,70.56
2018-05-01T03:33:43.798Z,69.79
2018-05-01T03:34:24.585Z,70.18
2018-05-01T03:35:07.017Z,70.94
2018-05-01T03:35:47.729Z,71.51
2018-05-01T03:36:29.484Z,70.65
2018-05-01T03:37:10.663Z,71.22
2018-05-01T03:37:51.910Z,70.56
2018-05-01T03:38:32.467Z,70.84
2018-05-01T03:39:12.973Z,71.03
2018-05-01T03:39:53.377Z,70.94
2018-05-01T03:40:34.665Z,70.94
2018-05-01T03:41:14.599Z,71.03
2018-05-01T03:41:55.088Z,71.03
2018-05-01T03:42:35.709Z,70.94
2018-05-01T03:43:16.801Z,69.99
2018-05-01T03:43:58.371Z,70.65
2018-05-01T03:44:40.340Z,70.27
2018-05-01T03:45:20.181Z,70.27
2018-05-01T03:46:00.688Z,70.47
2018-05-01T03:46:42.422Z,70.56
2018-05-01T03:47:23.001Z,70.08
2018-05-01T03:48:03.487Z,69.6
2018-05-01T03:48:43.813Z,69.79
2018-05-01T03:49:24.362Z,69.42
2018-05-01T03:50:05.456Z,70.27
2018-05-01T03:50:45.973Z,70.27
2018-05-01T03:51:26.995Z,70.27
2018-05-01T03:52:07.449Z,70.18
2018-05-01T03:52:47.994Z,70.08
2018-05-01T03:53:29.718Z,69.99
2018-05-01T03:54:10.744Z,70.75
2018-05-01T03:54:52.139Z,69.79
2018-05-01T03:55:32.248Z,70.27
2018-05-01T03:56:13.148Z,69.99
2018-05-01T03:56:53.968Z,70.56
2018-05-01T03:57:34.936Z,69.99
2018-05-01T03:58:15.280Z,69.99
2018-05-01T03:58:56.499Z,70.37
2018-05-01T03:59:37.191Z,69.99
2018-05-01T04:00:17.552Z,70.08
2018-05-01T04:00:58.299Z,70.37
2018-05-01T04:01:38.615Z,70.47
2018-05-01T04:02:19.896Z,70.56
2018-05-01T04:03:00.274Z,69.6
2018-05-01T04:42:17.576Z,71.42
2018-05-01T04:45:00.982Z,69.79
2018-05-01T04:45:43.184Z,69.89
2018-05-01T04:46:24.289Z,70.18
2018-05-01T04:47:05.562Z,69.7
2018-05-01T04:47:46.724Z,69.79
2018-05-01T04:48:27.988Z,71.22
2018-05-01T04:49:08.903Z,70.56
2018-05-01T04:49:49.330Z,69.32
2018-05-01T04:50:29.901Z,70.18
2018-05-01T04:51:10.771Z,70.18
2018-05-01T04:51:51.099Z,69.32
2018-05-01T04:52:33.538Z,69.13
2018-05-01T04:53:14.815Z,69.32
2018-05-01T04:53:55.274Z,69.51
2018-05-01T04:54:35.800Z,69.79
2018-05-01T04:55:19.399Z,69.32
2018-05-01T04:55:59.636Z,69.89
2018-05-01T04:56:40.130Z,69.7
2018-05-01T04:57:21.731Z,69.42
2018-05-01T04:58:02.412Z,68.94
2018-05-01T04:58:42.818Z,68.94
2018-05-01T04:59:23.650Z,68.3
2018-05-01T05:00:04.732Z,67.41
2018-05-01T05:00:45.322Z,67.7
2018-05-01T05:01:25.973Z,69.13
2018-05-01T05:02:06.439Z,68.94
2018-05-01T05:02:47.363Z,68.84
2018-05-01T05:03:28.485Z,69.32
2018-05-01T05:04:09.912Z,68.84
2018-05-01T05:04:50.245Z,69.04
2018-05-01T05:05:31.044Z,68.65
2018-05-01T05:06:14.599Z,68.08
2018-05-01T05:06:55.363Z,67.8
2018-05-01T05:07:35.821Z,68.18
2018-05-01T05:08:16.478Z,68.88
2018-05-01T05:08:57.056Z,68.3
2018-05-01T05:09:37.768Z,68.21
2018-05-01T05:10:18.530Z,66.88
2018-05-01T05:10:59.200Z,66.78
2018-05-01T05:12:57.514Z,66.97
2018-05-01T05:13:44.778Z,67.45
2018-05-01T05:14:25.645Z,67.41
2018-05-01T05:15:06.341Z,67.26
2018-05-01T05:15:46.754Z,67.45
2018-05-01T05:16:27.400Z,67.55
2018-05-01T05:17:07.830Z,66.02
2018-05-01T05:17:48.429Z,66.78
2018-05-01T05:18:29.495Z,67.55
2018-05-01T05:19:09.857Z,66.88
2018-05-01T05:19:50.350Z,67.35
2018-05-01T05:20:31.881Z,66.59
2018-05-01T05:21:12.082Z,66.59
2018-05-01T05:21:54.042Z,66.78
2018-05-01T05:22:34.249Z,66.59
2018-05-01T05:23:16.530Z,65.64
2018-05-01T05:23:56.524Z,65.64
2018-05-01T05:24:37.411Z,65.64
2018-05-01T05:25:17.901Z,65.73
2018-05-01T05:25:58.837Z,65.16
2018-05-01T05:26:41.977Z,65.83
2018-05-01T05:27:22.387Z,66.11
2018-05-01T05:28:02.828Z,65.83
2018-05-01T05:28:43.287Z,66.21
2018-05-01T05:29:23.733Z,66.21
2018-05-01T05:30:04.138Z,65.64
2018-05-01T05:30:44.537Z,65.73
2018-05-01T05:31:25.624Z,65.07
2018-05-01T05:32:06.141Z,65.16
2018-05-01T05:32:46.453Z,65.64
2018-05-01T05:33:27.543Z,65.07
2018-05-01T05:34:08.170Z,64.69
2018-05-01T05:34:49.163Z,64.4
2018-05-01T05:35:29.720Z,64.87
2018-05-01T05:36:10.787Z,65.73
2018-05-01T05:36:51.028Z,65.55
2018-05-01T05:37:31.533Z,64.97
2018-05-01T05:38:12.168Z,65.16
2018-05-01T05:38:52.852Z,65.55
2018-05-01T05:39:33.353Z,64.97
2018-05-01T05:40:13.791Z,65.45
2018-05-01T05:40:54.944Z,64.5
2018-05-01T05:41:36.068Z,64.78
2018-05-01T05:42:16.433Z,64.97
2018-05-01T05:42:57.894Z,63.64
2018-05-01T05:43:40.640Z,65.36
2018-05-01T05:44:20.816Z,65.26
2018-05-01T05:45:02.063Z,64.97
2018-05-01T05:45:42.813Z,64.97
2018-05-01T05:46:23.355Z,65.16
2018-05-01T05:47:03.873Z,65.26
2018-05-01T05:47:44.405Z,65.16
2018-05-01T05:48:24.789Z,64.59
2018-05-01T05:49:05.620Z,64.59
2018-05-01T05:49:46.525Z,65.45
2018-05-01T05:50:28.209Z,64.87
2018-05-01T05:51:08.072Z,64.78
2018-05-01T05:51:48.525Z,65.07
2018-05-01T05:52:30.613Z,65.36
2018-05-01T05:53:11.078Z,65.26
2018-05-01T05:53:51.807Z,65.16
2018-05-01T05:54:32.314Z,65.07
2018-05-01T05:55:13.826Z,65.07
2018-05-01T05:55:55.227Z,65.55
2018-05-01T05:56:36.453Z,64.78
2018-05-01T05:57:17.173Z,64.69
2018-05-01T05:57:58.237Z,64.97
2018-05-01T05:58:38.646Z,64.69
2018-05-01T05:59:19.611Z,64.4
2018-05-01T06:00:00.566Z,64.78
2018-05-01T06:00:41.434Z,64.87
2018-05-01T06:01:22.473Z,64.78
2018-05-01T06:02:03.173Z,64.87
2018-05-01T06:04:12.792Z,64.02
2018-05-01T06:07:04.405Z,64.59
2018-05-01T06:07:46.257Z,64.81
2018-05-01T06:08:26.878Z,64.31
2018-05-01T06:09:07.590Z,63.67
2018-05-01T06:09:48.197Z,63.92
2018-05-01T06:10:28.564Z,63.86
2018-05-01T06:11:09.269Z,63.76
2018-05-01T06:11:50.230Z,64.24
2018-05-01T06:12:30.781Z,63.67
2018-05-01T06:13:11.437Z,63
2018-05-01T06:13:52.390Z,63.1
2018-05-01T06:14:32.598Z,62.81
2018-05-01T06:15:13.006Z,63.67
2018-05-01T06:15:53.762Z,62.81
2018-05-01T06:16:34.349Z,63.67
2018-05-01T06:17:14.878Z,63.96
2018-05-01T06:17:55.576Z,63.29
2018-05-01T06:18:35.968Z,62.52
2018-05-01T06:19:16.441Z,62.91
2018-05-01T06:19:58.825Z,62.62
2018-05-01T06:20:39.706Z,62.81
2018-05-01T06:21:19.757Z,62.81
2018-05-01T06:22:00.279Z,62.15
2018-05-01T06:22:41.179Z,62.43
2018-05-01T06:23:21.481Z,61.86
2018-05-01T06:24:02.435Z,61.96
2018-05-01T06:24:42.897Z,61.6
2018-05-01T06:25:23.838Z,60.84
2018-05-01T06:26:04.349Z,61
2018-05-01T06:26:44.647Z,60.75
2018-05-01T06:27:25.169Z,61
2018-05-01T06:28:05.631Z,61.19
2018-05-01T06:28:45.943Z,62.18
2018-05-01T06:31:43.841Z,61.7
2018-05-01T06:32:24.019Z,61.22
2018-05-01T06:33:04.562Z,61.04
2018-05-01T06:33:45.315Z,60.65
2018-05-01T06:34:25.991Z,60.55
2018-05-01T06:35:08.587Z,60.08
2018-05-01T06:35:49.334Z,60.24
2018-05-01T06:36:30.085Z,60.91
2018-05-01T06:37:10.506Z,61.96
2018-05-01T06:37:51.943Z,62.27
2018-05-01T06:38:33.189Z,61.99
2018-05-01T06:39:13.864Z,61.8
2018-05-01T06:45:41.115Z,58.87
2018-05-01T06:46:23.494Z,58.29
2018-05-01T06:47:04.191Z,58.2
2018-05-01T06:47:44.983Z,59.06
2018-05-01T06:48:25.346Z,58.29
2018-05-01T06:49:05.805Z,57.72
2018-05-01T06:49:46.446Z,58.39
2018-05-01T06:50:26.841Z,57.53
2018-05-01T06:51:07.821Z,56.77
2018-05-01T06:51:48.459Z,58.11
2018-05-01T06:52:29.168Z,58.11
2018-05-01T06:53:09.645Z,58.11
2018-05-01T06:53:52.846Z,57.53
2018-05-01T06:54:33.341Z,56.96
2018-05-01T06:55:14.093Z,57.63
2018-05-01T06:55:55.918Z,57.53
2018-05-01T06:56:36.348Z,57.53
2018-05-01T06:57:17.532Z,57.92
2018-05-01T06:57:57.829Z,57.92
2018-05-01T06:58:39.710Z,58.11
2018-05-01T06:59:19.120Z,57.92
2018-05-01T07:00:00.065Z,57.34
2018-05-01T07:00:40.660Z,56.48
2018-05-01T07:01:22.438Z,56.48
2018-05-01T07:02:02.370Z,56.29
2018-05-01T07:02:43.175Z,56.84
2018-05-01T07:03:23.680Z,57.53
2018-05-01T07:04:04.639Z,57.53
2018-05-01T07:04:45.130Z,56.77
2018-05-01T07:05:26.150Z,56.87
2018-05-01T07:06:06.620Z,56.67
2018-05-01T07:06:48.001Z,56.2
2018-05-01T07:07:29.832Z,55.84
2018-05-01T07:08:10.502Z,55.36
2018-05-01T07:08:51.544Z,55.08
2018-05-01T07:09:31.581Z,54.79
2018-05-01T07:10:12.406Z,54.7
2018-05-01T07:10:52.688Z,54.53
2018-05-01T07:11:33.212Z,55.01
2018-05-01T07:12:13.743Z,54.34
2018-05-01T07:12:54.297Z,53.86
2018-05-01T07:13:35.189Z,53.77
2018-05-01T07:14:16.375Z,53.7
2018-05-01T07:14:57.195Z,52.94
2018-05-01T07:15:37.747Z,53.22
2018-05-01T07:16:19.676Z,52.77
2018-05-01T07:17:00.126Z,52.58
2018-05-01T07:17:40.677Z,52.2
2018-05-01T07:18:22.417Z,51.36
2018-05-01T07:19:03.058Z,51.17
2018-05-01T07:19:43.502Z,50.41
2018-05-01T07:20:23.995Z,50.81
2018-05-01T07:21:04.856Z,49.38
2018-05-01T07:21:45.220Z,48.93
2018-05-01T07:22:26.503Z,47.2
2018-05-01T07:23:06.373Z,46.53
2018-05-01T07:23:47.265Z,46.53
2018-05-01T07:24:27.612Z,46.41
2018-05-01T07:25:08.099Z,46.61
2018-05-01T07:25:48.991Z,46.98
2018-05-01T07:26:29.826Z,47.37
2018-05-01T07:27:11.024Z,46.98
2018-05-01T07:27:52.850Z,47.27
2018-05-01T07:28:33.173Z,48.04
2018-05-01T07:29:13.760Z,48.04
2018-05-01T07:29:54.137Z,47.3
2018-05-01T07:30:34.768Z,47.3
2018-05-01T07:31:16.042Z,47.11
2018-05-01T07:31:56.815Z,46.46
2018-05-01T07:32:37.394Z,46.26
2018-05-01T07:33:18.049Z,46.36
2018-05-01T07:33:58.679Z,44.85
2018-05-01T07:34:39.915Z,44.54
2018-05-01T07:35:20.397Z,44.18
2018-05-01T07:36:01.735Z,43.49
2018-05-01T07:36:42.453Z,43.6
2018-05-01T07:37:24.147Z,45.04
2018-05-01T07:38:04.768Z,43.91
2018-05-01T07:38:45.528Z,43.13
2018-05-01T07:39:26.704Z,43.32
2018-05-01T07:40:07.333Z,43.7
2018-05-01T07:40:50.096Z,43.73
2018-05-01T07:41:32.616Z,43.34
2018-05-01T07:42:13.405Z,43.63
2018-05-01T07:42:54.234Z,42.77
2018-05-01T07:43:35.844Z,42.27
2018-05-01T07:44:17.072Z,42.84
2018-05-01T07:44:57.668Z,43.03
2018-05-01T07:45:38.186Z,42.94
2018-05-01T07:46:18.505Z,43.01
2018-05-01T07:46:59.158Z,44.27
2018-05-01T07:47:40.522Z,43.6
2018-05-01T07:48:21.161Z,43.7
2018-05-01T07:49:02.518Z,43.51
2018-05-01T07:49:42.974Z,43.24
2018-05-01T07:50:24.278Z,42.94
2018-05-01T08:01:53.323Z,40.89
2018-05-01T08:02:33.570Z,39.26
2018-05-01T08:03:14.073Z,39.23
2018-05-01T08:03:54.612Z,40.39
2018-05-01T08:04:35.088Z,40.39
2018-05-01T08:05:15.755Z,41.16
2018-05-01T08:05:56.119Z,41.16
2018-05-01T08:06:36.748Z,41.16
2018-05-01T08:07:17.205Z,40.77
2018-05-01T08:07:57.795Z,40.2
2018-05-01T08:08:38.315Z,41.06
2018-05-01T08:09:18.723Z,40.77
2018-05-01T08:09:59.398Z,40.87
2018-05-01T08:10:39.932Z,40.58
2018-05-01T08:11:20.495Z,40.02
2018-05-01T08:12:01.161Z,39.45
2018-05-01T08:12:41.596Z,39.06
2018-05-01T08:13:22.243Z,39.26
2018-05-01T08:14:02.730Z,40.14
2018-05-01T08:14:43.232Z,38.7
2018-05-01T08:15:23.801Z,38.7
2018-05-01T08:16:04.169Z,38.51
2018-05-01T08:16:44.684Z,37.64
2018-05-01T08:17:25.226Z,37.26
2018-05-01T08:18:05.785Z,37.55
2018-05-01T08:18:46.236Z,37.62
2018-05-01T08:19:26.763Z,38.78
2018-05-01T08:20:07.357Z,38.78
2018-05-01T08:20:47.821Z,38.39
2018-05-01T08:21:28.235Z,39.06
2018-05-01T08:22:08.906Z,39.16
2018-05-01T08:22:49.408Z,39.04
2018-05-01T08:23:31.645Z,39.54
2018-05-01T08:24:12.695Z,39.54
2018-05-01T08:24:53.102Z,39.95
2018-05-01T08:25:33.483Z,38.89
2018-05-01T08:26:14.085Z,38.32
2018-05-01T08:26:54.399Z,37.64
2018-05-01T08:27:34.912Z,36.58
2018-05-01T08:28:15.528Z,37.26
2018-05-01T08:28:56.027Z,36.88
2018-05-01T08:29:36.658Z,37.93
2018-05-01T08:30:17.083Z,37.55
2018-05-01T08:30:57.379Z,37.24
2018-05-01T08:31:37.916Z,37.62
2018-05-01T08:32:18.840Z,38.12
2018-05-01T08:32:59.487Z,37.64
2018-05-01T08:33:40.012Z,37.64
2018-05-01T08:34:20.647Z,37.26
2018-05-01T08:35:01.813Z,37.74
2018-05-01T08:35:43.007Z,36.58
2018-05-01T08:36:24.008Z,36.95
2018-05-01T08:37:04.504Z,37.82
2018-05-01T08:37:45.585Z,37.15
2018-05-01T08:38:26.303Z,37.13
2018-05-01T08:39:07.602Z,38.28
2018-05-01T08:39:48.390Z,38.68
2018-05-01T08:40:29.219Z,37.82
2018-05-01T08:41:10.067Z,37.32
2018-05-01T08:41:51.193Z,37.8
2018-05-01T08:42:31.928Z,37.51
2018-05-01T08:43:12.536Z,37.7
2018-05-01T08:43:53.543Z,37.6
2018-05-01T08:44:34.619Z,38.09
2018-05-01T08:45:15.068Z,37.6
2018-05-01T08:45:57.763Z,38.87
2018-05-01T08:46:38.684Z,38.59
2018-05-01T08:47:18.965Z,37.62
2018-05-01T08:48:00.519Z,37.05
2018-05-01T08:48:40.777Z,36.38
2018-05-01T08:49:21.470Z,37.13
2018-05-01T08:50:02.958Z,37.15
2018-05-01T08:50:43.676Z,37.43
2018-05-01T08:51:24.486Z,36.57
2018-05-01T08:52:05.224Z,36.76
2018-05-01T08:52:46.029Z,37.03
2018-05-01T08:53:26.488Z,37.41
2018-05-01T08:54:08.004Z,38.29
2018-05-01T08:54:49.730Z,37.91
2018-05-01T08:55:30.115Z,37.24
2018-05-01T08:56:11.147Z,37.15
2018-05-01T08:56:51.718Z,37.93
2018-05-01T08:57:32.638Z,37.35
2018-05-01T08:58:13.937Z,37.84
2018-05-01T08:58:54.288Z,37.64
2018-05-01T08:59:35.459Z,37.55
2018-05-01T09:00:16.267Z,37.16
2018-05-01T09:00:56.865Z,37.26
2018-05-01T09:01:37.691Z,37.07
2018-05-01T09:02:18.461Z,37.07
2018-05-01T09:02:59.087Z,37.82
2018-05-01T09:03:39.871Z,37.62
2018-05-01T09:04:20.545Z,37.43
2018-05-01T09:05:01.772Z,37.15
2018-05-01T09:05:42.123Z,37.62
2018-05-01T09:06:22.528Z,37.82
2018-05-01T09:07:03.252Z,38.22
2018-05-01T09:07:44.228Z,37.53
2018-05-01T09:08:25.875Z,37.84
2018-05-01T09:09:06.096Z,37.62
2018-05-01T09:09:46.869Z,38.1
2018-05-01T09:10:27.661Z,38.59
2018-05-01T09:11:08.465Z,38.39
2018-05-01T09:11:49.459Z,38.1
2018-05-01T09:12:29.978Z,37.91
2018-05-01T09:13:10.945Z,38.49
2018-05-01T09:13:51.950Z,38.66
2018-05-01T09:14:32.636Z,38.47
2018-05-01T09:15:13.136Z,38.85
2018-05-01T09:15:53.560Z,39.62
2018-05-01T09:16:34.162Z,40.2
2018-05-01T09:17:14.446Z,39.06
2018-05-01T09:17:55.022Z,39.06
2018-05-01T09:18:35.452Z,38.68
2018-05-01T09:19:16.125Z,38.39
2018-05-01T09:19:56.765Z,39.23
2018-05-01T09:20:37.311Z,39.14
2018-05-01T09:21:17.803Z,39.89
2018-05-01T09:21:58.400Z,40.39
2018-05-01T09:22:38.914Z,40
2018-05-01T09:23:19.546Z,40.39
2018-05-01T09:24:00.027Z,39.72
2018-05-01T09:24:40.592Z,39.53
2018-05-01T09:25:21.033Z,40.1
2018-05-01T09:26:01.494Z,39.23
2018-05-01T09:26:41.878Z,39.33
2018-05-01T09:27:22.422Z,39.43
2018-05-01T09:28:02.963Z,39.04
2018-05-01T09:28:44.059Z,39.33
2018-05-01T09:29:24.505Z,39.41
2018-05-01T09:30:04.954Z,40.08
2018-05-01T09:30:45.500Z,39.72
2018-05-01T09:31:26.043Z,40
2018-05-01T09:32:06.569Z,40.2
2018-05-01T09:32:46.947Z,40.12
2018-05-01T09:33:27.400Z,38.78
2018-05-01T09:34:07.944Z,38.68
2018-05-01T09:34:48.360Z,37.72
2018-05-01T09:35:28.907Z,38.87
2018-05-01T09:36:09.434Z,39.16
2018-05-01T09:36:50.005Z,39.54
2018-05-01T09:37:30.694Z,38.68
2018-05-01T09:38:11.061Z,38.85
2018-05-01T09:38:51.537Z,39.04
2018-05-01T09:39:31.907Z,40
2018-05-01T09:40:12.556Z,40.58
2018-05-01T09:40:52.845Z,40
2018-05-01T09:41:33.367Z,39.91
2018-05-01T09:42:13.693Z,39.5
2018-05-01T09:42:54.123Z,40.39
2018-05-01T09:43:34.615Z,41.04
2018-05-01T09:44:15.092Z,41.13
2018-05-01T09:44:55.536Z,41.63
2018-05-01T09:45:36.046Z,41.71
2018-05-01T09:46:16.620Z,41.23
2018-05-01T09:46:57.137Z,41.33
2018-05-01T09:47:37.640Z,41.61
2018-05-01T09:48:18.116Z,42.1
2018-05-01T09:48:58.885Z,42.47
2018-05-01T09:49:39.265Z,42.29
2018-05-01T09:50:19.706Z,41.44
2018-05-01T09:51:00.278Z,41.35
2018-05-01T09:51:40.868Z,40.1
2018-05-01T09:52:21.125Z,40.39
2018-05-01T09:53:01.622Z,39.91
2018-05-01T09:53:42.099Z,39.91
2018-05-01T09:54:22.724Z,40
2018-05-01T09:55:03.117Z,40.58
2018-05-01T09:55:43.619Z,40.5
2018-05-01T09:56:24.047Z,40.31
2018-05-01T10:00:28.972Z,39.18
2018-05-01T10:01:10.383Z,39.37
2018-05-01T10:01:50.959Z,39.47
2018-05-01T10:02:31.556Z,39.26
2018-05-01T10:03:11.999Z,39.54
2018-05-01T10:03:52.565Z,39.95
2018-05-01T10:04:33.229Z,39.85
2018-05-01T10:46:07.132Z,38.87
2018-05-01T10:46:49.021Z,39.35
2018-05-01T10:47:29.552Z,38.99
2018-05-01T10:48:10.185Z,39.18
2018-05-01T10:58:41.523Z,35.85
2018-05-01T10:59:23.750Z,35.95
2018-05-01T11:00:04.155Z,35.66
2018-05-01T11:00:44.633Z,35.95